Terminal Aerodrome Forecast
Issued by NWS

Home | Current Version | Previous Version | Text Only | Print | Product List | Glossary On
Versions: 1 2 3 4 5 6 7 8 9 10 11 12 13 14 15 16 17 18 19 20 21 22 23 24 25 26 27 28
000
FTUS45 KRIW 301400 AAA
TAFPNA
TAF AMD
KPNA 301442Z 3015/0112 29006KT P6SM VCSH SCT022 BKN030
     FM301900 28014G20KT P6SM VCSH SCT020 OVC030
     FM010100 30007KT P6SM SCT050
      AMD LTD TO CLD VIS AND WIND=

USA.gov is the U.S. government's official web portal to all federal, state and local government web resources and services.